Healing, United Kingdom
Current Conditions -  °F | °C
As of 9:20 AM on Thursday 23 Oct 2014 (Local Time) from EGNJ Reporting Station
Broken Clouds Broken Clouds  
Wind Chill: 54°   Ceiling: 3200
Heat Index: 54°   Visibility: 6mi
Dew Point: 50°   Wind: 17mph
Humidity: 88%   Direction: 210°SSW
Pressure: 30"   Gusts: NA
Location:  53.58°N, 0.16°W
Report Text: EGNJ 230820Z 21015KT 9999 BKN032 12/10 Q1016
Loading
Personal Weather Stations






























Interactive Weather Map
Tropical Storm Tracking
New forecast layout! Learn more

10-Day Weather Forecast

Advertisements
Track Severe Weather on mobile